sensor_id;sensor_type;location;lat;lon;timestamp;temperature;humidity
34985;DHT22;21190;58.750;17.004;2023-02-28T00:01:30;1.30;99.90
34985;DHT22;21190;58.750;17.004;2023-02-28T00:03:58;1.30;99.90
34985;DHT22;21190;58.750;17.004;2023-02-28T00:06:25;1.30;99.90
34985;DHT22;21190;58.750;17.004;2023-02-28T00:08:53;1.20;99.90
34985;DHT22;21190;58.750;17.004;2023-02-28T00:11:20;1.10;99.90
34985;DHT22;21190;58.750;17.004;2023-02-28T00:13:47;1.10;99.90
34985;DHT22;21190;58.750;17.004;2023-02-28T00:16:17;1.10;99.90
34985;DHT22;21190;58.750;17.004;2023-02-28T00:18:45;1.20;99.90
34985;DHT22;21190;58.750;17.004;2023-02-28T00:21:15;1.30;99.90
34985;DHT22;21190;58.750;17.004;2023-02-28T00:23:42;1.30;99.90
34985;DHT22;21190;58.750;17.004;2023-02-28T00:26:10;1.30;99.90
34985;DHT22;21190;58.750;17.004;2023-02-28T00:28:36;1.20;99.90
34985;DHT22;21190;58.750;17.004;2023-02-28T00:31:04;1.20;99.90
34985;DHT22;21190;58.750;17.004;2023-02-28T00:33:31;1.20;99.90
34985;DHT22;21190;58.750;17.004;2023-02-28T00:36:07;1.20;99.90
34985;DHT22;21190;58.750;17.004;2023-02-28T00:38:34;1.20;99.90
34985;DHT22;21190;58.750;17.004;2023-02-28T00:41:01;1.10;99.90
34985;DHT22;21190;58.750;17.004;2023-02-28T00:43:36;1.10;99.90
34985;DHT22;21190;58.750;17.004;2023-02-28T00:46:03;1.00;99.90
34985;DHT22;21190;58.750;17.004;2023-02-28T00:48:31;1.00;99.90
34985;DHT22;21190;58.750;17.004;2023-02-28T00:50:58;0.90;99.90
34985;DHT22;21190;58.750;17.004;2023-02-28T00:53:25;0.90;99.90
34985;DHT22;21190;58.750;17.004;2023-02-28T00:55:53;0.90;99.90
34985;DHT22;21190;58.750;17.004;2023-02-28T00:58:20;0.90;99.90
34985;DHT22;21190;58.750;17.004;2023-02-28T01:00:47;0.80;99.90
34985;DHT22;21190;58.750;17.004;2023-02-28T01:03:16;0.90;99.90
34985;DHT22;21190;58.750;17.004;2023-02-28T01:05:44;0.90;99.90
34985;DHT22;21190;58.750;17.004;2023-02-28T01:08:12;0.90;99.90
34985;DHT22;21190;58.750;17.004;2023-02-28T01:10:40;1.00;99.90
34985;DHT22;21190;58.750;17.004;2023-02-28T01:13:07;1.00;99.90
34985;DHT22;21190;58.750;17.004;2023-02-28T01:15:34;0.90;99.90
34985;DHT22;21190;58.750;17.004;2023-02-28T01:18:02;1.00;99.90
34985;DHT22;21190;58.750;17.004;2023-02-28T01:20:29;0.90;99.90
34985;DHT22;21190;58.750;17.004;2023-02-28T01:22:56;0.90;99.90
34985;DHT22;21190;58.750;17.004;2023-02-28T01:25:23;1.00;99.90
34985;DHT22;21190;58.750;17.004;2023-02-28T01:27:50;1.00;99.90
34985;DHT22;21190;58.750;17.004;2023-02-28T01:30:17;0.90;99.90
34985;DHT22;21190;58.750;17.004;2023-02-28T01:32:44;0.80;99.90
34985;DHT22;21190;58.750;17.004;2023-02-28T01:35:12;0.70;99.90
34985;DHT22;21190;58.750;17.004;2023-02-28T01:37:39;0.80;99.90
34985;DHT22;21190;58.750;17.004;2023-02-28T01:40:06;0.80;99.90
34985;DHT22;21190;58.750;17.004;2023-02-28T01:42:33;0.90;99.90
34985;DHT22;21190;58.750;17.004;2023-02-28T01:47:38;0.80;99.90
34985;DHT22;21190;58.750;17.004;2023-02-28T01:50:09;0.80;99.90
34985;DHT22;21190;58.750;17.004;2023-02-28T01:52:38;0.80;99.90
34985;DHT22;21190;58.750;17.004;2023-02-28T01:55:07;0.70;99.90
34985;DHT22;21190;58.750;17.004;2023-02-28T01:57:42;0.60;99.90
34985;DHT22;21190;58.750;17.004;2023-02-28T02:00:18;0.60;99.90
34985;DHT22;21190;58.750;17.004;2023-02-28T02:02:48;0.70;99.90
34985;DHT22;21190;58.750;17.004;2023-02-28T02:05:22;0.70;99.90
34985;DHT22;21190;58.750;17.004;2023-02-28T02:07:55;0.70;99.90
34985;DHT22;21190;58.750;17.004;2023-02-28T02:10:36;0.70;99.90
34985;DHT22;21190;58.750;17.004;2023-02-28T02:13:38;0.70;99.90
34985;DHT22;21190;58.750;17.004;2023-02-28T02:38:58;0.70;99.90
34985;DHT22;21190;58.750;17.004;2023-02-28T02:41:41;0.70;99.90
34985;DHT22;21190;58.750;17.004;2023-02-28T02:47:11;0.60;99.90
34985;DHT22;21190;58.750;17.004;2023-02-28T02:49:43;0.50;99.90
34985;DHT22;21190;58.750;17.004;2023-02-28T02:52:15;0.50;99.90
34985;DHT22;21190;58.750;17.004;2023-02-28T02:54:46;0.50;99.90
34985;DHT22;21190;58.750;17.004;2023-02-28T02:57:27;0.40;99.90
34985;DHT22;21190;58.750;17.004;2023-02-28T02:59:57;0.50;99.90
34985;DHT22;21190;58.750;17.004;2023-02-28T03:02:26;0.40;99.90
34985;DHT22;21190;58.750;17.004;2023-02-28T03:05:02;0.40;99.90
34985;DHT22;21190;58.750;17.004;2023-02-28T03:07:30;0.40;99.90
34985;DHT22;21190;58.750;17.004;2023-02-28T03:09:57;0.40;99.90
34985;DHT22;21190;58.750;17.004;2023-02-28T03:12:33;0.40;99.90
34985;DHT22;21190;58.750;17.004;2023-02-28T03:15:21;0.40;99.90
34985;DHT22;21190;58.750;17.004;2023-02-28T03:18:00;0.40;99.90
34985;DHT22;21190;58.750;17.004;2023-02-28T03:23:36;0.30;99.90
34985;DHT22;21190;58.750;17.004;2023-02-28T03:26:17;0.30;99.90
34985;DHT22;21190;58.750;17.004;2023-02-28T03:31:41;0.40;99.90
34985;DHT22;21190;58.750;17.004;2023-02-28T03:34:29;0.10;99.90
34985;DHT22;21190;58.750;17.004;2023-02-28T03:37:04;0.10;99.90
34985;DHT22;21190;58.750;17.004;2023-02-28T03:39:39;0.10;99.90
34985;DHT22;21190;58.750;17.004;2023-02-28T03:42:15;0.10;99.90
34985;DHT22;21190;58.750;17.004;2023-02-28T03:44:47;0.10;99.90
34985;DHT22;21190;58.750;17.004;2023-02-28T03:50:19;0.00;99.90
34985;DHT22;21190;58.750;17.004;2023-02-28T03:52:55;-0.10;99.90
34985;DHT22;21190;58.750;17.004;2023-02-28T03:55:37;-0.10;99.90
34985;DHT22;21190;58.750;17.004;2023-02-28T03:58:20;-0.20;99.90
34985;DHT22;21190;58.750;17.004;2023-02-28T04:00:57;-0.10;99.90
34985;DHT22;21190;58.750;17.004;2023-02-28T04:03:24;-0.10;99.90
34985;DHT22;21190;58.750;17.004;2023-02-28T04:05:54;0.00;99.90
34985;DHT22;21190;58.750;17.004;2023-02-28T04:08:22;-0.10;99.90
34985;DHT22;21190;58.750;17.004;2023-02-28T04:10:57;-0.10;99.90
34985;DHT22;21190;58.750;17.004;2023-02-28T04:13:26;0.00;99.90
34985;DHT22;21190;58.750;17.004;2023-02-28T04:15:53;-0.10;99.90
34985;DHT22;21190;58.750;17.004;2023-02-28T04:18:20;-0.10;99.90
34985;DHT22;21190;58.750;17.004;2023-02-28T04:20:47;-0.10;99.90
34985;DHT22;21190;58.750;17.004;2023-02-28T04:23:14;-0.10;99.90
34985;DHT22;21190;58.750;17.004;2023-02-28T04:25:41;0.00;99.90
34985;DHT22;21190;58.750;17.004;2023-02-28T04:28:08;0.00;99.90
34985;DHT22;21190;58.750;17.004;2023-02-28T04:30:37;-0.10;99.90
34985;DHT22;21190;58.750;17.004;2023-02-28T04:33:04;-0.20;99.90
34985;DHT22;21190;58.750;17.004;2023-02-28T04:35:31;-0.30;99.90
34985;DHT22;21190;58.750;17.004;2023-02-28T04:37:58;-0.30;99.90
34985;DHT22;21190;58.750;17.004;2023-02-28T04:40:25;-0.20;99.90
34985;DHT22;21190;58.750;17.004;2023-02-28T04:42:52;-0.20;99.90
34985;DHT22;21190;58.750;17.004;2023-02-28T04:45:19;-0.30;99.90
34985;DHT22;21190;58.750;17.004;2023-02-28T04:47:46;-0.30;99.90
34985;DHT22;21190;58.750;17.004;2023-02-28T04:50:13;-0.30;99.90
34985;DHT22;21190;58.750;17.004;2023-02-28T04:52:40;-0.30;99.90
34985;DHT22;21190;58.750;17.004;2023-02-28T04:55:07;-0.30;99.90
34985;DHT22;21190;58.750;17.004;2023-02-28T04:57:34;-0.30;99.90
34985;DHT22;21190;58.750;17.004;2023-02-28T05:00:01;-0.30;99.90
34985;DHT22;21190;58.750;17.004;2023-02-28T05:02:34;-0.30;99.90
34985;DHT22;21190;58.750;17.004;2023-02-28T05:05:02;-0.30;99.90
34985;DHT22;21190;58.750;17.004;2023-02-28T05:07:29;-0.40;99.90
34985;DHT22;21190;58.750;17.004;2023-02-28T05:09:56;-0.40;99.90
34985;DHT22;21190;58.750;17.004;2023-02-28T05:12:23;-0.40;99.90
34985;DHT22;21190;58.750;17.004;2023-02-28T05:14:50;-0.50;99.90
34985;DHT22;21190;58.750;17.004;2023-02-28T05:17:17;-0.50;99.90
34985;DHT22;21190;58.750;17.004;2023-02-28T05:19:44;-0.50;99.90
34985;DHT22;21190;58.750;17.004;2023-02-28T05:22:15;-0.50;99.90
34985;DHT22;21190;58.750;17.004;2023-02-28T05:24:43;-0.60;99.90
34985;DHT22;21190;58.750;17.004;2023-02-28T05:27:10;-0.60;99.90
34985;DHT22;21190;58.750;17.004;2023-02-28T05:29:37;-0.60;99.90
34985;DHT22;21190;58.750;17.004;2023-02-28T05:32:10;-0.60;99.90
34985;DHT22;21190;58.750;17.004;2023-02-28T05:34:39;-0.60;99.90
34985;DHT22;21190;58.750;17.004;2023-02-28T05:37:11;-0.60;99.90
34985;DHT22;21190;58.750;17.004;2023-02-28T05:39:39;-0.70;99.90
34985;DHT22;21190;58.750;17.004;2023-02-28T05:42:06;-0.70;99.90
34985;DHT22;21190;58.750;17.004;2023-02-28T05:44:33;-0.70;99.90
34985;DHT22;21190;58.750;17.004;2023-02-28T05:47:00;-0.70;99.90
34985;DHT22;21190;58.750;17.004;2023-02-28T05:49:27;-0.70;99.90
34985;DHT22;21190;58.750;17.004;2023-02-28T05:51:54;-0.60;99.90
34985;DHT22;21190;58.750;17.004;2023-02-28T05:54:21;-0.60;99.90
34985;DHT22;21190;58.750;17.004;2023-02-28T05:56:48;-0.70;99.90
34985;DHT22;21190;58.750;17.004;2023-02-28T05:59:15;-0.60;99.90
34985;DHT22;21190;58.750;17.004;2023-02-28T06:01:44;-0.60;99.90
34985;DHT22;21190;58.750;17.004;2023-02-28T06:04:16;-0.50;99.90
34985;DHT22;21190;58.750;17.004;2023-02-28T06:06:57;-0.10;99.90
34985;DHT22;21190;58.750;17.004;2023-02-28T06:09:24;0.10;99.90
34985;DHT22;21190;58.750;17.004;2023-02-28T06:11:51;0.30;99.90
34985;DHT22;21190;58.750;17.004;2023-02-28T06:14:20;0.30;99.90
34985;DHT22;21190;58.750;17.004;2023-02-28T06:16:47;0.30;99.90
34985;DHT22;21190;58.750;17.004;2023-02-28T06:19:15;0.30;99.90
34985;DHT22;21190;58.750;17.004;2023-02-28T06:21:42;0.30;99.90
34985;DHT22;21190;58.750;17.004;2023-02-28T06:24:09;0.40;99.90
34985;DHT22;21190;58.750;17.004;2023-02-28T06:26:36;0.30;99.90
34985;DHT22;21190;58.750;17.004;2023-02-28T06:29:04;0.20;99.90
34985;DHT22;21190;58.750;17.004;2023-02-28T06:31:31;0.10;99.90
34985;DHT22;21190;58.750;17.004;2023-02-28T06:33:58;0.10;99.90
34985;DHT22;21190;58.750;17.004;2023-02-28T06:36:25;0.10;99.90
34985;DHT22;21190;58.750;17.004;2023-02-28T06:38:52;0.00;99.90
34985;DHT22;21190;58.750;17.004;2023-02-28T06:41:26;0.10;99.90
34985;DHT22;21190;58.750;17.004;2023-02-28T06:43:54;0.10;99.90
34985;DHT22;21190;58.750;17.004;2023-02-28T06:46:21;0.10;99.90
34985;DHT22;21190;58.750;17.004;2023-02-28T06:48:48;0.20;99.90
34985;DHT22;21190;58.750;17.004;2023-02-28T06:51:18;0.20;99.90
34985;DHT22;21190;58.750;17.004;2023-02-28T06:53:47;0.20;99.90
34985;DHT22;21190;58.750;17.004;2023-02-28T06:56:15;0.30;99.90
34985;DHT22;21190;58.750;17.004;2023-02-28T06:58:46;0.30;99.90
34985;DHT22;21190;58.750;17.004;2023-02-28T07:01:14;0.40;99.90
34985;DHT22;21190;58.750;17.004;2023-02-28T07:03:41;0.50;99.90
34985;DHT22;21190;58.750;17.004;2023-02-28T07:06:08;0.60;99.90
34985;DHT22;21190;58.750;17.004;2023-02-28T07:08:35;0.70;99.90
34985;DHT22;21190;58.750;17.004;2023-02-28T07:11:03;0.80;99.90
34985;DHT22;21190;58.750;17.004;2023-02-28T07:13:31;0.80;99.90
34985;DHT22;21190;58.750;17.004;2023-02-28T07:16:00;0.90;99.90
34985;DHT22;21190;58.750;17.004;2023-02-28T07:18:28;1.00;99.90
34985;DHT22;21190;58.750;17.004;2023-02-28T07:20:55;1.00;99.90
34985;DHT22;21190;58.750;17.004;2023-02-28T07:23:23;1.10;99.90
34985;DHT22;21190;58.750;17.004;2023-02-28T07:25:51;1.10;99.90
34985;DHT22;21190;58.750;17.004;2023-02-28T07:28:18;1.20;99.90
34985;DHT22;21190;58.750;17.004;2023-02-28T07:30:45;1.30;99.90
34985;DHT22;21190;58.750;17.004;2023-02-28T07:33:13;1.40;99.90
34985;DHT22;21190;58.750;17.004;2023-02-28T07:35:41;1.40;99.90
34985;DHT22;21190;58.750;17.004;2023-02-28T07:38:08;1.50;99.90
34985;DHT22;21190;58.750;17.004;2023-02-28T07:40:36;1.50;99.90
34985;DHT22;21190;58.750;17.004;2023-02-28T07:43:03;1.60;99.90
34985;DHT22;21190;58.750;17.004;2023-02-28T07:45:30;1.80;99.90
34985;DHT22;21190;58.750;17.004;2023-02-28T07:48:01;1.80;99.90
34985;DHT22;21190;58.750;17.004;2023-02-28T07:50:28;1.90;99.90
34985;DHT22;21190;58.750;17.004;2023-02-28T07:52:59;1.90;99.90
34985;DHT22;21190;58.750;17.004;2023-02-28T07:55:26;2.10;99.90
34985;DHT22;21190;58.750;17.004;2023-02-28T07:57:53;2.20;99.90
34985;DHT22;21190;58.750;17.004;2023-02-28T08:00:20;2.20;99.90
34985;DHT22;21190;58.750;17.004;2023-02-28T08:02:48;2.30;99.90
34985;DHT22;21190;58.750;17.004;2023-02-28T08:05:15;2.40;99.90
34985;DHT22;21190;58.750;17.004;2023-02-28T08:07:42;2.50;99.90
34985;DHT22;21190;58.750;17.004;2023-02-28T08:10:09;2.60;99.90
34985;DHT22;21190;58.750;17.004;2023-02-28T08:12:36;2.60;99.90
34985;DHT22;21190;58.750;17.004;2023-02-28T08:15:04;2.60;99.90
34985;DHT22;21190;58.750;17.004;2023-02-28T08:17:31;2.80;99.90
34985;DHT22;21190;58.750;17.004;2023-02-28T08:20:01;2.90;99.90
34985;DHT22;21190;58.750;17.004;2023-02-28T08:22:28;2.90;99.90
34985;DHT22;21190;58.750;17.004;2023-02-28T08:24:55;3.00;99.90
34985;DHT22;21190;58.750;17.004;2023-02-28T08:27:22;3.00;99.90
34985;DHT22;21190;58.750;17.004;2023-02-28T08:29:49;3.10;99.90
34985;DHT22;21190;58.750;17.004;2023-02-28T08:32:16;3.10;99.90
34985;DHT22;21190;58.750;17.004;2023-02-28T08:34:56;3.20;99.90
34985;DHT22;21190;58.750;17.004;2023-02-28T08:37:23;3.20;99.90
34985;DHT22;21190;58.750;17.004;2023-02-28T08:39:50;3.30;99.90
34985;DHT22;21190;58.750;17.004;2023-02-28T08:42:21;3.30;99.90
34985;DHT22;21190;58.750;17.004;2023-02-28T08:44:48;3.50;99.90
34985;DHT22;21190;58.750;17.004;2023-02-28T08:47:15;3.50;99.90
34985;DHT22;21190;58.750;17.004;2023-02-28T08:49:42;3.60;99.90
34985;DHT22;21190;58.750;17.004;2023-02-28T08:52:09;3.70;99.90
34985;DHT22;21190;58.750;17.004;2023-02-28T08:54:36;3.80;99.90
34985;DHT22;21190;58.750;17.004;2023-02-28T08:57:03;3.80;99.90
34985;DHT22;21190;58.750;17.004;2023-02-28T08:59:30;4.00;99.90
34985;DHT22;21190;58.750;17.004;2023-02-28T09:01:57;4.10;99.90
34985;DHT22;21190;58.750;17.004;2023-02-28T09:04:25;4.20;99.90
34985;DHT22;21190;58.750;17.004;2023-02-28T09:06:52;4.30;99.90
34985;DHT22;21190;58.750;17.004;2023-02-28T09:09:19;4.40;99.90
34985;DHT22;21190;58.750;17.004;2023-02-28T09:11:46;4.50;99.90
34985;DHT22;21190;58.750;17.004;2023-02-28T09:14:13;4.50;99.90
34985;DHT22;21190;58.750;17.004;2023-02-28T09:16:40;4.60;99.90
34985;DHT22;21190;58.750;17.004;2023-02-28T09:19:11;4.70;99.90
34985;DHT22;21190;58.750;17.004;2023-02-28T09:21:37;4.80;99.90
34985;DHT22;21190;58.750;17.004;2023-02-28T09:24:05;5.00;99.90
34985;DHT22;21190;58.750;17.004;2023-02-28T09:26:32;5.00;99.90
34985;DHT22;21190;58.750;17.004;2023-02-28T09:29:13;5.10;99.90
34985;DHT22;21190;58.750;17.004;2023-02-28T09:31:41;5.20;99.90
34985;DHT22;21190;58.750;17.004;2023-02-28T09:34:08;5.30;99.90
34985;DHT22;21190;58.750;17.004;2023-02-28T09:36:35;5.30;99.90
34985;DHT22;21190;58.750;17.004;2023-02-28T09:39:12;5.40;99.90
34985;DHT22;21190;58.750;17.004;2023-02-28T09:41:43;5.50;99.90
34985;DHT22;21190;58.750;17.004;2023-02-28T09:44:20;5.60;99.90
34985;DHT22;21190;58.750;17.004;2023-02-28T09:46:52;5.60;99.90
34985;DHT22;21190;58.750;17.004;2023-02-28T09:49:24;5.70;99.90
34985;DHT22;21190;58.750;17.004;2023-02-28T09:51:58;5.70;99.90
34985;DHT22;21190;58.750;17.004;2023-02-28T09:54:29;5.80;99.90
34985;DHT22;21190;58.750;17.004;2023-02-28T09:59:50;6.00;99.90
34985;DHT22;21190;58.750;17.004;2023-02-28T10:02:41;6.00;99.90
34985;DHT22;21190;58.750;17.004;2023-02-28T10:05:20;6.10;99.90
34985;DHT22;21190;58.750;17.004;2023-02-28T10:10:28;6.30;99.90
34985;DHT22;21190;58.750;17.004;2023-02-28T10:12:59;6.40;99.90
34985;DHT22;21190;58.750;17.004;2023-02-28T10:15:31;6.50;99.90
34985;DHT22;21190;58.750;17.004;2023-02-28T10:18:03;6.50;99.90
34985;DHT22;21190;58.750;17.004;2023-02-28T10:20:35;6.50;99.90
34985;DHT22;21190;58.750;17.004;2023-02-28T10:23:23;6.60;99.90
34985;DHT22;21190;58.750;17.004;2023-02-28T10:26:10;6.70;99.90
34985;DHT22;21190;58.750;17.004;2023-02-28T10:28:38;6.80;99.90
34985;DHT22;21190;58.750;17.004;2023-02-28T10:31:17;6.80;99.90
34985;DHT22;21190;58.750;17.004;2023-02-28T10:33:45;6.80;99.90
34985;DHT22;21190;58.750;17.004;2023-02-28T10:36:18;6.90;99.90
34985;DHT22;21190;58.750;17.004;2023-02-28T10:38:46;6.80;99.90
34985;DHT22;21190;58.750;17.004;2023-02-28T10:41:37;6.80;99.90
34985;DHT22;21190;58.750;17.004;2023-02-28T10:44:29;6.70;99.90
34985;DHT22;21190;58.750;17.004;2023-02-28T10:46:56;6.80;99.90
34985;DHT22;21190;58.750;17.004;2023-02-28T10:49:27;6.70;99.90
34985;DHT22;21190;58.750;17.004;2023-02-28T10:52:00;6.70;99.90
34985;DHT22;21190;58.750;17.004;2023-02-28T10:57:08;6.70;99.90
34985;DHT22;21190;58.750;17.004;2023-02-28T10:59:37;6.70;99.90
34985;DHT22;21190;58.750;17.004;2023-02-28T11:04:56;6.70;99.90
34985;DHT22;21190;58.750;17.004;2023-02-28T11:07:25;6.70;99.90
34985;DHT22;21190;58.750;17.004;2023-02-28T11:09:57;6.70;99.90
34985;DHT22;21190;58.750;17.004;2023-02-28T11:12:35;6.90;99.90
34985;DHT22;21190;58.750;17.004;2023-02-28T11:18:21;7.00;99.90
34985;DHT22;21190;58.750;17.004;2023-02-28T11:20:51;7.20;99.90
34985;DHT22;21190;58.750;17.004;2023-02-28T11:23:19;7.20;99.90
34985;DHT22;21190;58.750;17.004;2023-02-28T11:25:55;7.40;99.90
34985;DHT22;21190;58.750;17.004;2023-02-28T11:28:33;7.50;99.90
34985;DHT22;21190;58.750;17.004;2023-02-28T11:31:15;7.50;99.90
34985;DHT22;21190;58.750;17.004;2023-02-28T11:33:43;7.50;99.90
34985;DHT22;21190;58.750;17.004;2023-02-28T11:36:14;7.60;99.90
34985;DHT22;21190;58.750;17.004;2023-02-28T11:38:41;7.70;99.90
34985;DHT22;21190;58.750;17.004;2023-02-28T11:46:52;7.90;99.90
34985;DHT22;21190;58.750;17.004;2023-02-28T11:49:35;8.00;99.90
34985;DHT22;21190;58.750;17.004;2023-02-28T11:52:36;8.00;99.90
34985;DHT22;21190;58.750;17.004;2023-02-28T12:00:39;8.20;99.90
34985;DHT22;21190;58.750;17.004;2023-02-28T12:06:13;8.20;99.90
34985;DHT22;21190;58.750;17.004;2023-02-28T12:11:25;8.30;99.90
34985;DHT22;21190;58.750;17.004;2023-02-28T12:20:35;8.40;99.90
34985;DHT22;21190;58.750;17.004;2023-02-28T12:28:59;8.30;99.90
34985;DHT22;21190;58.750;17.004;2023-02-28T12:31:36;8.30;99.90
34985;DHT22;21190;58.750;17.004;2023-02-28T12:34:12;8.40;99.90
34985;DHT22;21190;58.750;17.004;2023-02-28T12:36:41;8.50;99.90
34985;DHT22;21190;58.750;17.004;2023-02-28T12:39:18;8.50;99.90
34985;DHT22;21190;58.750;17.004;2023-02-28T12:42:05;8.60;99.90
34985;DHT22;21190;58.750;17.004;2023-02-28T12:44:42;8.70;99.90
34985;DHT22;21190;58.750;17.004;2023-02-28T12:47:16;8.80;99.90
34985;DHT22;21190;58.750;17.004;2023-02-28T12:49:52;8.80;99.90
34985;DHT22;21190;58.750;17.004;2023-02-28T13:09:02;9.30;99.90
34985;DHT22;21190;58.750;17.004;2023-02-28T13:11:43;9.30;99.90
34985;DHT22;21190;58.750;17.004;2023-02-28T13:17:18;9.40;99.90
34985;DHT22;21190;58.750;17.004;2023-02-28T13:19:57;9.40;99.90
34985;DHT22;21190;58.750;17.004;2023-02-28T13:22:46;9.50;99.90
34985;DHT22;21190;58.750;17.004;2023-02-28T13:28:09;9.60;99.90
34985;DHT22;21190;58.750;17.004;2023-02-28T13:35:46;9.60;99.90
34985;DHT22;21190;58.750;17.004;2023-02-28T13:38:22;9.40;99.90
34985;DHT22;21190;58.750;17.004;2023-02-28T13:40:50;9.50;99.90
34985;DHT22;21190;58.750;17.004;2023-02-28T13:43:18;9.40;99.90
34985;DHT22;21190;58.750;17.004;2023-02-28T13:46:12;9.40;99.90
34985;DHT22;21190;58.750;17.004;2023-02-28T13:48:41;9.40;99.90
34985;DHT22;21190;58.750;17.004;2023-02-28T13:51:47;9.40;99.90
34985;DHT22;21190;58.750;17.004;2023-02-28T13:54:24;9.40;99.90
34985;DHT22;21190;58.750;17.004;2023-02-28T13:57:18;9.40;99.90
34985;DHT22;21190;58.750;17.004;2023-02-28T14:02:46;9.30;99.90
34985;DHT22;21190;58.750;17.004;2023-02-28T14:05:22;9.20;99.90
34985;DHT22;21190;58.750;17.004;2023-02-28T14:08:11;9.10;99.90
34985;DHT22;21190;58.750;17.004;2023-02-28T14:10:44;9.10;99.90
34985;DHT22;21190;58.750;17.004;2023-02-28T14:13:39;9.10;99.90
34985;DHT22;21190;58.750;17.004;2023-02-28T14:16:17;9.00;99.90
34985;DHT22;21190;58.750;17.004;2023-02-28T14:18:54;9.10;99.90
34985;DHT22;21190;58.750;17.004;2023-02-28T14:21:28;9.00;99.90
34985;DHT22;21190;58.750;17.004;2023-02-28T14:27:03;9.00;99.90
34985;DHT22;21190;58.750;17.004;2023-02-28T14:32:47;9.00;99.90
34985;DHT22;21190;58.750;17.004;2023-02-28T14:37:57;8.90;99.90
34985;DHT22;21190;58.750;17.004;2023-02-28T14:40:30;8.80;99.90
34985;DHT22;21190;58.750;17.004;2023-02-28T14:43:01;8.80;99.90
34985;DHT22;21190;58.750;17.004;2023-02-28T14:45:32;8.80;99.90
34985;DHT22;21190;58.750;17.004;2023-02-28T14:48:01;8.80;99.90
34985;DHT22;21190;58.750;17.004;2023-02-28T14:50:34;8.80;99.90
34985;DHT22;21190;58.750;17.004;2023-02-28T14:53:01;8.80;99.90
34985;DHT22;21190;58.750;17.004;2023-02-28T14:55:32;8.80;99.90
34985;DHT22;21190;58.750;17.004;2023-02-28T14:58:03;8.80;99.90
34985;DHT22;21190;58.750;17.004;2023-02-28T15:00:32;8.80;99.90
34985;DHT22;21190;58.750;17.004;2023-02-28T15:03:11;8.80;99.90
34985;DHT22;21190;58.750;17.004;2023-02-28T15:05:51;8.80;99.90
34985;DHT22;21190;58.750;17.004;2023-02-28T15:08:19;8.80;99.90
34985;DHT22;21190;58.750;17.004;2023-02-28T15:11:00;8.80;99.90
34985;DHT22;21190;58.750;17.004;2023-02-28T15:13:40;8.70;99.90
34985;DHT22;21190;58.750;17.004;2023-02-28T15:16:18;8.70;99.90
34985;DHT22;21190;58.750;17.004;2023-02-28T15:18:51;8.70;99.90
34985;DHT22;21190;58.750;17.004;2023-02-28T15:21:39;8.60;99.90
34985;DHT22;21190;58.750;17.004;2023-02-28T15:24:44;8.60;99.90
34985;DHT22;21190;58.750;17.004;2023-02-28T15:27:27;8.50;99.90
34985;DHT22;21190;58.750;17.004;2023-02-28T15:29:59;8.60;99.90
34985;DHT22;21190;58.750;17.004;2023-02-28T15:32:31;8.60;99.90
34985;DHT22;21190;58.750;17.004;2023-02-28T15:35:16;8.50;99.90
34985;DHT22;21190;58.750;17.004;2023-02-28T15:38:12;8.50;99.90
34985;DHT22;21190;58.750;17.004;2023-02-28T15:40:49;8.50;99.90
34985;DHT22;21190;58.750;17.004;2023-02-28T15:45:52;8.40;99.90
34985;DHT22;21190;58.750;17.004;2023-02-28T15:48:30;8.40;99.90
34985;DHT22;21190;58.750;17.004;2023-02-28T15:53:33;8.20;99.90
34985;DHT22;21190;58.750;17.004;2023-02-28T15:56:06;8.20;99.90
34985;DHT22;21190;58.750;17.004;2023-02-28T15:58:41;8.20;99.90
34985;DHT22;21190;58.750;17.004;2023-02-28T16:01:19;8.10;99.90
34985;DHT22;21190;58.750;17.004;2023-02-28T16:03:48;8.00;99.90
34985;DHT22;21190;58.750;17.004;2023-02-28T16:08:44;7.80;99.90
34985;DHT22;21190;58.750;17.004;2023-02-28T16:11:11;7.60;99.90
34985;DHT22;21190;58.750;17.004;2023-02-28T16:13:38;7.50;99.90
34985;DHT22;21190;58.750;17.004;2023-02-28T16:16:05;7.40;99.90
34985;DHT22;21190;58.750;17.004;2023-02-28T16:18:32;7.20;99.90
34985;DHT22;21190;58.750;17.004;2023-02-28T16:20:59;7.10;99.90
34985;DHT22;21190;58.750;17.004;2023-02-28T16:23:26;7.00;99.90
34985;DHT22;21190;58.750;17.004;2023-02-28T16:25:53;6.90;99.90
34985;DHT22;21190;58.750;17.004;2023-02-28T16:28:25;6.70;99.90
34985;DHT22;21190;58.750;17.004;2023-02-28T16:30:53;6.70;99.90
34985;DHT22;21190;58.750;17.004;2023-02-28T16:33:20;6.70;99.90
34985;DHT22;21190;58.750;17.004;2023-02-28T16:35:48;6.60;99.90
34985;DHT22;21190;58.750;17.004;2023-02-28T16:38:14;6.60;99.90
34985;DHT22;21190;58.750;17.004;2023-02-28T16:40:41;6.60;99.90
34985;DHT22;21190;58.750;17.004;2023-02-28T16:43:15;6.50;99.90
34985;DHT22;21190;58.750;17.004;2023-02-28T16:45:43;6.50;99.90
34985;DHT22;21190;58.750;17.004;2023-02-28T16:48:15;6.40;99.90
34985;DHT22;21190;58.750;17.004;2023-02-28T16:50:43;6.30;99.90
34985;DHT22;21190;58.750;17.004;2023-02-28T16:53:12;6.20;99.90
34985;DHT22;21190;58.750;17.004;2023-02-28T16:55:40;6.10;99.90
34985;DHT22;21190;58.750;17.004;2023-02-28T16:58:15;6.00;99.90
34985;DHT22;21190;58.750;17.004;2023-02-28T17:00:42;6.00;99.90
34985;DHT22;21190;58.750;17.004;2023-02-28T17:03:25;6.00;99.90
34985;DHT22;21190;58.750;17.004;2023-02-28T17:05:59;5.90;99.90
34985;DHT22;21190;58.750;17.004;2023-02-28T17:08:27;5.80;99.90
34985;DHT22;21190;58.750;17.004;2023-02-28T17:10:56;5.70;99.90
34985;DHT22;21190;58.750;17.004;2023-02-28T17:13:23;5.70;99.90
34985;DHT22;21190;58.750;17.004;2023-02-28T17:15:50;5.60;99.90
34985;DHT22;21190;58.750;17.004;2023-02-28T17:18:18;5.50;99.90
34985;DHT22;21190;58.750;17.004;2023-02-28T17:20:46;5.30;99.90
34985;DHT22;21190;58.750;17.004;2023-02-28T17:23:13;5.30;99.90
34985;DHT22;21190;58.750;17.004;2023-02-28T17:25:40;5.30;99.90
34985;DHT22;21190;58.750;17.004;2023-02-28T17:28:08;5.20;99.90
34985;DHT22;21190;58.750;17.004;2023-02-28T17:30:35;5.10;99.90
34985;DHT22;21190;58.750;17.004;2023-02-28T17:33:02;5.00;99.90
34985;DHT22;21190;58.750;17.004;2023-02-28T17:35:29;4.90;99.90
34985;DHT22;21190;58.750;17.004;2023-02-28T17:37:56;5.00;99.90
34985;DHT22;21190;58.750;17.004;2023-02-28T17:40:23;5.00;99.90
34985;DHT22;21190;58.750;17.004;2023-02-28T17:42:50;4.90;99.90
34985;DHT22;21190;58.750;17.004;2023-02-28T17:45:19;4.90;99.90
34985;DHT22;21190;58.750;17.004;2023-02-28T17:47:48;4.80;99.90
34985;DHT22;21190;58.750;17.004;2023-02-28T17:50:19;4.80;99.90
34985;DHT22;21190;58.750;17.004;2023-02-28T17:52:47;4.80;99.90
34985;DHT22;21190;58.750;17.004;2023-02-28T17:55:14;4.80;99.90
34985;DHT22;21190;58.750;17.004;2023-02-28T17:57:42;4.80;99.90
34985;DHT22;21190;58.750;17.004;2023-02-28T18:00:17;4.80;99.90
34985;DHT22;21190;58.750;17.004;2023-02-28T18:02:44;4.70;99.90